Terminal Aerodrome Forecast
Issued by NWS Twin Cities, MN

Home | Current Version | Previous Version | Text Only | Print | Product List | Glossary Off
Versions: 1 2 3 4 5 6 7 8 9 10 11 12 13 14 15 16 17 18 19 20 21 22 23 24 25 26 27 28 29 30

000
FTUS43 KMPX 241723
TAFMSP
TAF
KMSP 241723Z 2418/2524 31015G22KT P6SM OVC018
      TEMPO 2418/2421 2SM -SN OVC015
     FM242300 31015G23KT P6SM OVC018
     FM250400 31014KT P6SM SCT020
     FM251200 26005KT P6SM SCT100
     FM251900 21006KT P6SM BKN040=

USA.gov is the U.S. government's official web portal to all federal, state and local government web resources and services.